sensor_id;sensor_type;location;lat;lon;timestamp;P1;durP1;ratioP1;P2;durP2;ratioP2
64986;SDS011;51532;52.108;9.360;2022-12-07T00:02:21;11.90;;;10.43;;
64986;SDS011;51532;52.108;9.360;2022-12-07T00:05:09;13.98;;;11.10;;
64986;SDS011;51532;52.108;9.360;2022-12-07T00:07:57;13.27;;;9.82;;
64986;SDS011;51532;52.108;9.360;2022-12-07T00:10:44;11.73;;;10.52;;
64986;SDS011;51532;52.108;9.360;2022-12-07T00:13:32;10.90;;;9.60;;
64986;SDS011;51532;52.108;9.360;2022-12-07T00:16:22;11.32;;;9.77;;
64986;SDS011;51532;52.108;9.360;2022-12-07T00:19:12;10.32;;;9.23;;
64986;SDS011;51532;52.108;9.360;2022-12-07T00:22:00;11.15;;;9.65;;
64986;SDS011;51532;52.108;9.360;2022-12-07T00:24:48;10.63;;;9.52;;
64986;SDS011;51532;52.108;9.360;2022-12-07T00:27:35;10.40;;;9.23;;
64986;SDS011;51532;52.108;9.360;2022-12-07T00:30:22;10.50;;;9.15;;
64986;SDS011;51532;52.108;9.360;2022-12-07T00:33:10;9.65;;;8.35;;
64986;SDS011;51532;52.108;9.360;2022-12-07T00:35:58;10.55;;;8.85;;
64986;SDS011;51532;52.108;9.360;2022-12-07T00:38:46;11.68;;;10.32;;
64986;SDS011;51532;52.108;9.360;2022-12-07T00:41:33;11.93;;;10.40;;
64986;SDS011;51532;52.108;9.360;2022-12-07T00:44:21;11.85;;;10.25;;
64986;SDS011;51532;52.108;9.360;2022-12-07T00:47:08;11.52;;;10.07;;
64986;SDS011;51532;52.108;9.360;2022-12-07T00:49:56;11.77;;;10.43;;
64986;SDS011;51532;52.108;9.360;2022-12-07T00:52:45;10.73;;;9.60;;
64986;SDS011;51532;52.108;9.360;2022-12-07T00:55:33;10.18;;;9.13;;
64986;SDS011;51532;52.108;9.360;2022-12-07T00:58:21;10.30;;;9.30;;
64986;SDS011;51532;52.108;9.360;2022-12-07T01:01:09;10.82;;;9.73;;
64986;SDS011;51532;52.108;9.360;2022-12-07T01:03:57;11.00;;;9.85;;
64986;SDS011;51532;52.108;9.360;2022-12-07T01:06:47;11.43;;;10.23;;
64986;SDS011;51532;52.108;9.360;2022-12-07T01:09:35;12.65;;;10.27;;
64986;SDS011;51532;52.108;9.360;2022-12-07T01:12:22;11.40;;;10.25;;
64986;SDS011;51532;52.108;9.360;2022-12-07T01:15:10;12.88;;;11.57;;
64986;SDS011;51532;52.108;9.360;2022-12-07T01:17:57;11.95;;;10.75;;
64986;SDS011;51532;52.108;9.360;2022-12-07T01:20:45;11.80;;;10.60;;
64986;SDS011;51532;52.108;9.360;2022-12-07T01:23:33;12.13;;;10.63;;
64986;SDS011;51532;52.108;9.360;2022-12-07T01:26:22;13.25;;;11.75;;
64986;SDS011;51532;52.108;9.360;2022-12-07T01:29:10;12.93;;;11.52;;
64986;SDS011;51532;52.108;9.360;2022-12-07T01:31:58;14.00;;;11.82;;
64986;SDS011;51532;52.108;9.360;2022-12-07T01:34:47;14.10;;;12.30;;
64986;SDS011;51532;52.108;9.360;2022-12-07T01:37:35;14.30;;;12.70;;
64986;SDS011;51532;52.108;9.360;2022-12-07T01:40:23;16.38;;;13.80;;
64986;SDS011;51532;52.108;9.360;2022-12-07T01:43:15;15.63;;;12.50;;
64986;SDS011;51532;52.108;9.360;2022-12-07T01:46:10;16.80;;;13.30;;
64986;SDS011;51532;52.108;9.360;2022-12-07T01:48:57;16.02;;;13.27;;
64986;SDS011;51532;52.108;9.360;2022-12-07T01:51:45;16.90;;;12.98;;
64986;SDS011;51532;52.108;9.360;2022-12-07T01:54:34;14.27;;;12.77;;
64986;SDS011;51532;52.108;9.360;2022-12-07T01:57:22;17.60;;;13.43;;
64986;SDS011;51532;52.108;9.360;2022-12-07T02:00:11;15.65;;;13.00;;
64986;SDS011;51532;52.108;9.360;2022-12-07T02:06:21;16.75;;;14.05;;
64986;SDS011;51532;52.108;9.360;2022-12-07T02:09:11;15.82;;;13.07;;
64986;SDS011;51532;52.108;9.360;2022-12-07T02:11:58;14.38;;;12.57;;
64986;SDS011;51532;52.108;9.360;2022-12-07T02:14:46;14.48;;;12.73;;
64986;SDS011;51532;52.108;9.360;2022-12-07T02:17:54;13.15;;;11.73;;
64986;SDS011;51532;52.108;9.360;2022-12-07T02:21:11;14.40;;;11.40;;
64986;SDS011;51532;52.108;9.360;2022-12-07T02:24:11;14.77;;;12.15;;
64986;SDS011;51532;52.108;9.360;2022-12-07T02:27:24;15.70;;;12.85;;
64986;SDS011;51532;52.108;9.360;2022-12-07T02:30:38;16.30;;;12.88;;
64986;SDS011;51532;52.108;9.360;2022-12-07T02:33:37;15.60;;;12.73;;
64986;SDS011;51532;52.108;9.360;2022-12-07T02:36:31;15.40;;;11.23;;
64986;SDS011;51532;52.108;9.360;2022-12-07T02:42:49;16.92;;;11.32;;
64986;SDS011;51532;52.108;9.360;2022-12-07T02:45:40;15.32;;;13.07;;
64986;SDS011;51532;52.108;9.360;2022-12-07T02:48:28;16.05;;;13.35;;
64986;SDS011;51532;52.108;9.360;2022-12-07T02:51:17;15.65;;;13.13;;
64986;SDS011;51532;52.108;9.360;2022-12-07T02:54:09;13.30;;;11.75;;
64986;SDS011;51532;52.108;9.360;2022-12-07T03:00:00;14.85;;;12.07;;
64986;SDS011;51532;52.108;9.360;2022-12-07T03:02:59;14.65;;;11.57;;
64986;SDS011;51532;52.108;9.360;2022-12-07T03:08:48;15.13;;;12.27;;
64986;SDS011;51532;52.108;9.360;2022-12-07T03:11:42;15.40;;;12.00;;
64986;SDS011;51532;52.108;9.360;2022-12-07T03:14:38;14.63;;;10.40;;
64986;SDS011;51532;52.108;9.360;2022-12-07T03:17:31;14.80;;;11.27;;
64986;SDS011;51532;52.108;9.360;2022-12-07T03:20:22;14.88;;;11.18;;
64986;SDS011;51532;52.108;9.360;2022-12-07T03:23:12;15.43;;;10.38;;
64986;SDS011;51532;52.108;9.360;2022-12-07T03:26:01;13.55;;;10.07;;
64986;SDS011;51532;52.108;9.360;2022-12-07T03:28:52;12.88;;;10.52;;
64986;SDS011;51532;52.108;9.360;2022-12-07T03:31:43;15.50;;;10.43;;
64986;SDS011;51532;52.108;9.360;2022-12-07T03:34:49;13.27;;;10.68;;
64986;SDS011;51532;52.108;9.360;2022-12-07T03:37:43;12.73;;;9.68;;
64986;SDS011;51532;52.108;9.360;2022-12-07T03:40:43;13.70;;;10.73;;
64986;SDS011;51532;52.108;9.360;2022-12-07T03:43:31;15.32;;;11.07;;
64986;SDS011;51532;52.108;9.360;2022-12-07T03:49:55;11.52;;;9.45;;
64986;SDS011;51532;52.108;9.360;2022-12-07T03:52:56;14.05;;;10.43;;
64986;SDS011;51532;52.108;9.360;2022-12-07T03:55:49;14.90;;;10.13;;
64986;SDS011;51532;52.108;9.360;2022-12-07T03:58:39;12.32;;;8.70;;
64986;SDS011;51532;52.108;9.360;2022-12-07T04:01:27;14.88;;;9.80;;
64986;SDS011;51532;52.108;9.360;2022-12-07T04:04:15;13.45;;;9.30;;
64986;SDS011;51532;52.108;9.360;2022-12-07T04:07:02;14.75;;;9.48;;
64986;SDS011;51532;52.108;9.360;2022-12-07T04:09:49;13.70;;;8.85;;
64986;SDS011;51532;52.108;9.360;2022-12-07T04:12:37;13.27;;;8.60;;
64986;SDS011;51532;52.108;9.360;2022-12-07T04:15:24;13.57;;;9.07;;
64986;SDS011;51532;52.108;9.360;2022-12-07T04:18:11;11.73;;;7.82;;
64986;SDS011;51532;52.108;9.360;2022-12-07T04:20:59;12.30;;;8.48;;
64986;SDS011;51532;52.108;9.360;2022-12-07T04:23:46;12.20;;;8.05;;
64986;SDS011;51532;52.108;9.360;2022-12-07T04:26:34;12.80;;;7.68;;
64986;SDS011;51532;52.108;9.360;2022-12-07T04:29:21;11.88;;;8.18;;
64986;SDS011;51532;52.108;9.360;2022-12-07T04:32:09;12.50;;;8.23;;
64986;SDS011;51532;52.108;9.360;2022-12-07T04:34:56;9.98;;;7.25;;
64986;SDS011;51532;52.108;9.360;2022-12-07T04:37:43;10.55;;;7.40;;
64986;SDS011;51532;52.108;9.360;2022-12-07T04:40:30;11.80;;;7.50;;
64986;SDS011;51532;52.108;9.360;2022-12-07T04:43:18;13.00;;;8.38;;
64986;SDS011;51532;52.108;9.360;2022-12-07T04:46:05;12.15;;;7.65;;
64986;SDS011;51532;52.108;9.360;2022-12-07T04:48:53;10.50;;;8.13;;
64986;SDS011;51532;52.108;9.360;2022-12-07T04:51:41;14.70;;;8.13;;
64986;SDS011;51532;52.108;9.360;2022-12-07T04:54:29;11.15;;;7.95;;
64986;SDS011;51532;52.108;9.360;2022-12-07T04:57:16;13.80;;;8.27;;
64986;SDS011;51532;52.108;9.360;2022-12-07T05:00:04;11.20;;;7.75;;
64986;SDS011;51532;52.108;9.360;2022-12-07T05:02:51;12.02;;;8.27;;
64986;SDS011;51532;52.108;9.360;2022-12-07T05:05:40;11.00;;;7.78;;
64986;SDS011;51532;52.108;9.360;2022-12-07T05:08:28;11.50;;;7.93;;
64986;SDS011;51532;52.108;9.360;2022-12-07T05:11:16;9.38;;;7.72;;
64986;SDS011;51532;52.108;9.360;2022-12-07T05:14:22;10.77;;;7.38;;
64986;SDS011;51532;52.108;9.360;2022-12-07T05:17:10;9.25;;;7.13;;
64986;SDS011;51532;52.108;9.360;2022-12-07T05:19:58;10.32;;;7.65;;
64986;SDS011;51532;52.108;9.360;2022-12-07T05:22:46;11.77;;;7.00;;
64986;SDS011;51532;52.108;9.360;2022-12-07T05:25:34;11.82;;;7.20;;
64986;SDS011;51532;52.108;9.360;2022-12-07T05:28:21;9.45;;;6.55;;
64986;SDS011;51532;52.108;9.360;2022-12-07T05:31:08;11.88;;;6.70;;
64986;SDS011;51532;52.108;9.360;2022-12-07T05:33:55;8.57;;;6.22;;
64986;SDS011;51532;52.108;9.360;2022-12-07T05:36:43;8.70;;;6.97;;
64986;SDS011;51532;52.108;9.360;2022-12-07T05:39:31;10.27;;;5.97;;
64986;SDS011;51532;52.108;9.360;2022-12-07T05:42:18;10.02;;;6.80;;
64986;SDS011;51532;52.108;9.360;2022-12-07T05:45:06;9.77;;;6.47;;
64986;SDS011;51532;52.108;9.360;2022-12-07T05:47:54;10.85;;;7.20;;
64986;SDS011;51532;52.108;9.360;2022-12-07T05:50:41;9.05;;;6.65;;
64986;SDS011;51532;52.108;9.360;2022-12-07T05:53:30;9.57;;;5.75;;
64986;SDS011;51532;52.108;9.360;2022-12-07T05:56:18;10.02;;;7.28;;
64986;SDS011;51532;52.108;9.360;2022-12-07T05:59:05;12.15;;;7.20;;
64986;SDS011;51532;52.108;9.360;2022-12-07T06:02:12;11.25;;;6.18;;
64986;SDS011;51532;52.108;9.360;2022-12-07T06:05:00;10.70;;;7.07;;
64986;SDS011;51532;52.108;9.360;2022-12-07T06:07:48;10.45;;;7.45;;
64986;SDS011;51532;52.108;9.360;2022-12-07T06:10:35;10.18;;;6.32;;
64986;SDS011;51532;52.108;9.360;2022-12-07T06:13:23;9.98;;;6.38;;
64986;SDS011;51532;52.108;9.360;2022-12-07T06:16:10;8.77;;;5.13;;
64986;SDS011;51532;52.108;9.360;2022-12-07T06:18:58;9.15;;;5.35;;
64986;SDS011;51532;52.108;9.360;2022-12-07T06:21:45;10.75;;;5.40;;
64986;SDS011;51532;52.108;9.360;2022-12-07T06:24:33;8.65;;;4.70;;
64986;SDS011;51532;52.108;9.360;2022-12-07T06:27:20;8.00;;;5.07;;
64986;SDS011;51532;52.108;9.360;2022-12-07T06:30:08;7.63;;;4.70;;
64986;SDS011;51532;52.108;9.360;2022-12-07T06:32:56;18.70;;;12.43;;
64986;SDS011;51532;52.108;9.360;2022-12-07T06:35:43;9.63;;;6.03;;
64986;SDS011;51532;52.108;9.360;2022-12-07T06:38:31;6.10;;;4.82;;
64986;SDS011;51532;52.108;9.360;2022-12-07T06:41:18;7.07;;;5.43;;
64986;SDS011;51532;52.108;9.360;2022-12-07T06:44:06;9.10;;;6.35;;
64986;SDS011;51532;52.108;9.360;2022-12-07T06:46:54;10.77;;;5.78;;
64986;SDS011;51532;52.108;9.360;2022-12-07T06:50:01;6.18;;;4.88;;
64986;SDS011;51532;52.108;9.360;2022-12-07T06:52:50;5.15;;;3.95;;
64986;SDS011;51532;52.108;9.360;2022-12-07T06:55:38;23.88;;;16.35;;
64986;SDS011;51532;52.108;9.360;2022-12-07T06:58:25;9.70;;;7.30;;
64986;SDS011;51532;52.108;9.360;2022-12-07T07:01:13;16.80;;;11.27;;
64986;SDS011;51532;52.108;9.360;2022-12-07T07:04:03;8.57;;;6.20;;
64986;SDS011;51532;52.108;9.360;2022-12-07T07:06:50;11.05;;;7.55;;
64986;SDS011;51532;52.108;9.360;2022-12-07T07:09:45;8.15;;;4.53;;
64986;SDS011;51532;52.108;9.360;2022-12-07T07:12:32;7.78;;;4.72;;
64986;SDS011;51532;52.108;9.360;2022-12-07T07:15:20;6.50;;;4.78;;
64986;SDS011;51532;52.108;9.360;2022-12-07T07:18:07;5.35;;;4.82;;
64986;SDS011;51532;52.108;9.360;2022-12-07T07:20:55;4.53;;;3.92;;
64986;SDS011;51532;52.108;9.360;2022-12-07T07:23:42;6.60;;;4.43;;
64986;SDS011;51532;52.108;9.360;2022-12-07T07:26:29;6.35;;;4.28;;
64986;SDS011;51532;52.108;9.360;2022-12-07T07:29:17;7.35;;;4.07;;
64986;SDS011;51532;52.108;9.360;2022-12-07T07:32:04;4.15;;;3.30;;
64986;SDS011;51532;52.108;9.360;2022-12-07T07:34:52;5.57;;;3.25;;
64986;SDS011;51532;52.108;9.360;2022-12-07T07:37:40;9.18;;;3.63;;
64986;SDS011;51532;52.108;9.360;2022-12-07T07:40:27;3.78;;;2.83;;
64986;SDS011;51532;52.108;9.360;2022-12-07T07:43:15;9.75;;;3.40;;
64986;SDS011;51532;52.108;9.360;2022-12-07T07:46:03;6.53;;;3.60;;
64986;SDS011;51532;52.108;9.360;2022-12-07T07:48:50;6.47;;;3.80;;
64986;SDS011;51532;52.108;9.360;2022-12-07T07:51:38;8.60;;;3.90;;
64986;SDS011;51532;52.108;9.360;2022-12-07T07:54:26;5.88;;;3.20;;
64986;SDS011;51532;52.108;9.360;2022-12-07T07:57:13;4.85;;;4.00;;
64986;SDS011;51532;52.108;9.360;2022-12-07T08:00:01;5.05;;;4.03;;
64986;SDS011;51532;52.108;9.360;2022-12-07T08:02:57;8.95;;;4.03;;
64986;SDS011;51532;52.108;9.360;2022-12-07T08:05:45;7.50;;;4.22;;
64986;SDS011;51532;52.108;9.360;2022-12-07T08:08:33;7.18;;;4.00;;
64986;SDS011;51532;52.108;9.360;2022-12-07T08:11:20;4.43;;;3.70;;
64986;SDS011;51532;52.108;9.360;2022-12-07T08:14:08;5.80;;;4.28;;
64986;SDS011;51532;52.108;9.360;2022-12-07T08:16:57;4.88;;;4.03;;
64986;SDS011;51532;52.108;9.360;2022-12-07T08:19:44;6.65;;;3.78;;
64986;SDS011;51532;52.108;9.360;2022-12-07T08:22:31;4.43;;;3.65;;
64986;SDS011;51532;52.108;9.360;2022-12-07T08:25:19;7.22;;;3.20;;
64986;SDS011;51532;52.108;9.360;2022-12-07T08:28:07;4.72;;;3.53;;
64986;SDS011;51532;52.108;9.360;2022-12-07T08:31:05;8.43;;;3.20;;
64986;SDS011;51532;52.108;9.360;2022-12-07T08:33:54;5.88;;;3.30;;
64986;SDS011;51532;52.108;9.360;2022-12-07T08:36:41;7.78;;;3.50;;
64986;SDS011;51532;52.108;9.360;2022-12-07T08:39:28;4.05;;;3.50;;
64986;SDS011;51532;52.108;9.360;2022-12-07T08:42:18;4.93;;;3.08;;
64986;SDS011;51532;52.108;9.360;2022-12-07T08:45:09;3.53;;;3.03;;
64986;SDS011;51532;52.108;9.360;2022-12-07T08:48:02;4.85;;;2.78;;
64986;SDS011;51532;52.108;9.360;2022-12-07T08:50:57;5.97;;;3.65;;
64986;SDS011;51532;52.108;9.360;2022-12-07T08:53:44;6.40;;;3.65;;
64986;SDS011;51532;52.108;9.360;2022-12-07T08:56:32;3.33;;;2.83;;
64986;SDS011;51532;52.108;9.360;2022-12-07T08:59:20;6.38;;;3.30;;
64986;SDS011;51532;52.108;9.360;2022-12-07T09:02:07;3.20;;;2.17;;
64986;SDS011;51532;52.108;9.360;2022-12-07T09:04:54;3.03;;;2.70;;
64986;SDS011;51532;52.108;9.360;2022-12-07T09:07:43;3.10;;;2.15;;
64986;SDS011;51532;52.108;9.360;2022-12-07T09:10:32;4.63;;;2.72;;
64986;SDS011;51532;52.108;9.360;2022-12-07T09:13:20;3.10;;;2.47;;
64986;SDS011;51532;52.108;9.360;2022-12-07T09:16:07;4.30;;;3.22;;
64986;SDS011;51532;52.108;9.360;2022-12-07T09:18:55;3.95;;;2.40;;
64986;SDS011;51532;52.108;9.360;2022-12-07T09:21:42;5.15;;;2.53;;
64986;SDS011;51532;52.108;9.360;2022-12-07T09:24:30;5.90;;;2.30;;
64986;SDS011;51532;52.108;9.360;2022-12-07T09:27:18;5.55;;;2.60;;
64986;SDS011;51532;52.108;9.360;2022-12-07T09:30:06;5.32;;;2.75;;
64986;SDS011;51532;52.108;9.360;2022-12-07T09:32:54;5.55;;;2.97;;
64986;SDS011;51532;52.108;9.360;2022-12-07T09:35:49;5.65;;;3.50;;
64986;SDS011;51532;52.108;9.360;2022-12-07T09:38:37;6.32;;;3.17;;
64986;SDS011;51532;52.108;9.360;2022-12-07T09:41:25;5.93;;;3.30;;
64986;SDS011;51532;52.108;9.360;2022-12-07T09:44:20;7.22;;;3.30;;
64986;SDS011;51532;52.108;9.360;2022-12-07T09:47:10;9.00;;;2.70;;
64986;SDS011;51532;52.108;9.360;2022-12-07T09:50:00;6.13;;;2.70;;
64986;SDS011;51532;52.108;9.360;2022-12-07T09:52:51;5.10;;;2.78;;
64986;SDS011;51532;52.108;9.360;2022-12-07T09:55:40;4.75;;;2.95;;
64986;SDS011;51532;52.108;9.360;2022-12-07T09:58:29;5.32;;;2.60;;
64986;SDS011;51532;52.108;9.360;2022-12-07T10:01:18;7.85;;;2.58;;
64986;SDS011;51532;52.108;9.360;2022-12-07T10:04:14;4.97;;;3.15;;
64986;SDS011;51532;52.108;9.360;2022-12-07T10:07:10;4.55;;;2.75;;
64986;SDS011;51532;52.108;9.360;2022-12-07T10:09:58;2.67;;;2.25;;
64986;SDS011;51532;52.108;9.360;2022-12-07T10:18:37;4.32;;;2.33;;
64986;SDS011;51532;52.108;9.360;2022-12-07T10:21:28;2.97;;;1.90;;
64986;SDS011;51532;52.108;9.360;2022-12-07T10:24:15;4.55;;;2.20;;
64986;SDS011;51532;52.108;9.360;2022-12-07T10:27:03;4.95;;;2.22;;
64986;SDS011;51532;52.108;9.360;2022-12-07T10:29:51;6.85;;;2.13;;
64986;SDS011;51532;52.108;9.360;2022-12-07T10:32:40;3.13;;;2.28;;
64986;SDS011;51532;52.108;9.360;2022-12-07T10:35:28;7.15;;;2.40;;
64986;SDS011;51532;52.108;9.360;2022-12-07T10:38:16;4.07;;;2.00;;
64986;SDS011;51532;52.108;9.360;2022-12-07T10:41:06;7.18;;;2.20;;
64986;SDS011;51532;52.108;9.360;2022-12-07T10:43:55;7.05;;;2.47;;
64986;SDS011;51532;52.108;9.360;2022-12-07T10:49:44;4.07;;;2.63;;
64986;SDS011;51532;52.108;9.360;2022-12-07T11:01:59;5.20;;;2.15;;
64986;SDS011;51532;52.108;9.360;2022-12-07T11:05:20;8.35;;;2.45;;
64986;SDS011;51532;52.108;9.360;2022-12-07T11:11:34;6.50;;;2.08;;
64986;SDS011;51532;52.108;9.360;2022-12-07T11:17:44;3.67;;;2.10;;
64986;SDS011;51532;52.108;9.360;2022-12-07T11:20:52;4.45;;;2.00;;
64986;SDS011;51532;52.108;9.360;2022-12-07T11:24:01;6.10;;;2.13;;
64986;SDS011;51532;52.108;9.360;2022-12-07T11:27:09;5.07;;;1.75;;
64986;SDS011;51532;52.108;9.360;2022-12-07T11:33:00;5.85;;;2.03;;
64986;SDS011;51532;52.108;9.360;2022-12-07T11:42:12;4.20;;;2.00;;
64986;SDS011;51532;52.108;9.360;2022-12-07T11:45:28;4.72;;;1.90;;
64986;SDS011;51532;52.108;9.360;2022-12-07T11:48:21;4.13;;;1.85;;
64986;SDS011;51532;52.108;9.360;2022-12-07T11:51:20;3.90;;;1.63;;
64986;SDS011;51532;52.108;9.360;2022-12-07T11:54:13;4.65;;;2.20;;
64986;SDS011;51532;52.108;9.360;2022-12-07T11:57:07;5.47;;;2.00;;
64986;SDS011;51532;52.108;9.360;2022-12-07T12:00:08;4.32;;;1.85;;
64986;SDS011;51532;52.108;9.360;2022-12-07T12:03:03;4.30;;;2.25;;
64986;SDS011;51532;52.108;9.360;2022-12-07T12:06:02;1.77;;;1.55;;
64986;SDS011;51532;52.108;9.360;2022-12-07T12:08:55;3.50;;;1.80;;
64986;SDS011;51532;52.108;9.360;2022-12-07T12:15:55;2.50;;;1.42;;
64986;SDS011;51532;52.108;9.360;2022-12-07T12:19:03;5.55;;;2.17;;
64986;SDS011;51532;52.108;9.360;2022-12-07T12:22:09;4.95;;;2.05;;
64986;SDS011;51532;52.108;9.360;2022-12-07T12:25:06;4.80;;;2.00;;
64986;SDS011;51532;52.108;9.360;2022-12-07T12:28:20;6.85;;;2.08;;
64986;SDS011;51532;52.108;9.360;2022-12-07T12:31:13;4.72;;;1.70;;
64986;SDS011;51532;52.108;9.360;2022-12-07T12:34:37;3.92;;;1.95;;
64986;SDS011;51532;52.108;9.360;2022-12-07T12:37:39;7.50;;;2.38;;
64986;SDS011;51532;52.108;9.360;2022-12-07T12:55:11;5.68;;;2.55;;
64986;SDS011;51532;52.108;9.360;2022-12-07T13:04:56;4.28;;;1.92;;
64986;SDS011;51532;52.108;9.360;2022-12-07T13:10:39;4.13;;;1.80;;
64986;SDS011;51532;52.108;9.360;2022-12-07T13:13:29;4.95;;;1.45;;
64986;SDS011;51532;52.108;9.360;2022-12-07T13:19:27;3.92;;;1.80;;
64986;SDS011;51532;52.108;9.360;2022-12-07T13:25:22;4.07;;;1.60;;
64986;SDS011;51532;52.108;9.360;2022-12-07T13:28:17;5.88;;;1.95;;
64986;SDS011;51532;52.108;9.360;2022-12-07T13:31:11;2.25;;;1.30;;
64986;SDS011;51532;52.108;9.360;2022-12-07T13:34:03;6.10;;;1.60;;
64986;SDS011;51532;52.108;9.360;2022-12-07T13:36:51;4.95;;;1.75;;
64986;SDS011;51532;52.108;9.360;2022-12-07T13:39:45;4.75;;;1.73;;
64986;SDS011;51532;52.108;9.360;2022-12-07T13:42:34;6.38;;;1.80;;
64986;SDS011;51532;52.108;9.360;2022-12-07T13:45:32;3.58;;;1.60;;
64986;SDS011;51532;52.108;9.360;2022-12-07T13:48:47;4.82;;;1.27;;
64986;SDS011;51532;52.108;9.360;2022-12-07T13:51:36;5.53;;;1.60;;
64986;SDS011;51532;52.108;9.360;2022-12-07T13:54:23;8.13;;;1.92;;
64986;SDS011;51532;52.108;9.360;2022-12-07T13:57:11;3.85;;;2.30;;
64986;SDS011;51532;52.108;9.360;2022-12-07T13:59:59;5.28;;;1.85;;
64986;SDS011;51532;52.108;9.360;2022-12-07T14:03:00;4.57;;;1.77;;
64986;SDS011;51532;52.108;9.360;2022-12-07T14:06:02;4.13;;;2.20;;
64986;SDS011;51532;52.108;9.360;2022-12-07T14:09:17;3.55;;;2.08;;
64986;SDS011;51532;52.108;9.360;2022-12-07T14:12:06;4.97;;;1.70;;
64986;SDS011;51532;52.108;9.360;2022-12-07T14:14:54;2.10;;;1.17;;
64986;SDS011;51532;52.108;9.360;2022-12-07T14:17:53;4.88;;;1.92;;
64986;SDS011;51532;52.108;9.360;2022-12-07T14:20:41;5.60;;;1.75;;
64986;SDS011;51532;52.108;9.360;2022-12-07T14:23:29;3.03;;;1.88;;
64986;SDS011;51532;52.108;9.360;2022-12-07T14:26:20;6.00;;;1.88;;
64986;SDS011;51532;52.108;9.360;2022-12-07T14:32:18;4.55;;;1.70;;
64986;SDS011;51532;52.108;9.360;2022-12-07T14:35:15;3.88;;;1.52;;
64986;SDS011;51532;52.108;9.360;2022-12-07T14:38:03;2.90;;;1.60;;
64986;SDS011;51532;52.108;9.360;2022-12-07T14:40:54;3.53;;;1.55;;
64986;SDS011;51532;52.108;9.360;2022-12-07T14:44:04;3.15;;;1.48;;
64986;SDS011;51532;52.108;9.360;2022-12-07T14:47:17;4.65;;;1.88;;
64986;SDS011;51532;52.108;9.360;2022-12-07T14:50:24;4.38;;;1.73;;
64986;SDS011;51532;52.108;9.360;2022-12-07T14:53:13;6.18;;;2.20;;
64986;SDS011;51532;52.108;9.360;2022-12-07T14:56:09;4.75;;;1.67;;
64986;SDS011;51532;52.108;9.360;2022-12-07T14:58:57;4.68;;;1.85;;
64986;SDS011;51532;52.108;9.360;2022-12-07T15:01:44;5.32;;;2.15;;
64986;SDS011;51532;52.108;9.360;2022-12-07T15:04:32;4.18;;;1.85;;
64986;SDS011;51532;52.108;9.360;2022-12-07T15:07:19;4.95;;;2.17;;
64986;SDS011;51532;52.108;9.360;2022-12-07T15:10:18;6.38;;;2.30;;
64986;SDS011;51532;52.108;9.360;2022-12-07T15:13:10;2.53;;;2.10;;
64986;SDS011;51532;52.108;9.360;2022-12-07T15:16:18;6.28;;;2.22;;
64986;SDS011;51532;52.108;9.360;2022-12-07T15:19:11;4.70;;;2.20;;
64986;SDS011;51532;52.108;9.360;2022-12-07T15:22:18;2.78;;;1.85;;
64986;SDS011;51532;52.108;9.360;2022-12-07T15:25:05;8.63;;;2.80;;
64986;SDS011;51532;52.108;9.360;2022-12-07T15:27:53;6.28;;;2.60;;
64986;SDS011;51532;52.108;9.360;2022-12-07T15:30:41;5.93;;;2.28;;
64986;SDS011;51532;52.108;9.360;2022-12-07T15:33:29;5.80;;;2.40;;
64986;SDS011;51532;52.108;9.360;2022-12-07T15:36:20;4.25;;;2.05;;
64986;SDS011;51532;52.108;9.360;2022-12-07T15:39:13;2.80;;;2.03;;
64986;SDS011;51532;52.108;9.360;2022-12-07T15:42:01;5.75;;;2.42;;
64986;SDS011;51532;52.108;9.360;2022-12-07T15:44:48;7.32;;;2.92;;
64986;SDS011;51532;52.108;9.360;2022-12-07T15:47:52;3.08;;;2.15;;
64986;SDS011;51532;52.108;9.360;2022-12-07T15:51:05;5.47;;;1.88;;
64986;SDS011;51532;52.108;9.360;2022-12-07T15:53:53;3.72;;;2.20;;
64986;SDS011;51532;52.108;9.360;2022-12-07T15:56:42;4.68;;;2.55;;
64986;SDS011;51532;52.108;9.360;2022-12-07T15:59:29;5.30;;;2.22;;
64986;SDS011;51532;52.108;9.360;2022-12-07T16:02:16;5.55;;;2.13;;
64986;SDS011;51532;52.108;9.360;2022-12-07T16:05:04;3.92;;;2.13;;
64986;SDS011;51532;52.108;9.360;2022-12-07T16:07:52;4.68;;;2.10;;
64986;SDS011;51532;52.108;9.360;2022-12-07T16:10:39;4.50;;;1.92;;
64986;SDS011;51532;52.108;9.360;2022-12-07T16:13:29;4.43;;;1.95;;
64986;SDS011;51532;52.108;9.360;2022-12-07T16:16:17;5.35;;;2.13;;
64986;SDS011;51532;52.108;9.360;2022-12-07T16:19:05;4.22;;;2.60;;
64986;SDS011;51532;52.108;9.360;2022-12-07T16:21:54;5.95;;;2.75;;
64986;SDS011;51532;52.108;9.360;2022-12-07T16:24:41;4.72;;;2.40;;
64986;SDS011;51532;52.108;9.360;2022-12-07T16:27:28;7.47;;;2.83;;
64986;SDS011;51532;52.108;9.360;2022-12-07T16:30:16;5.85;;;2.22;;
64986;SDS011;51532;52.108;9.360;2022-12-07T16:33:03;4.75;;;2.28;;
64986;SDS011;51532;52.108;9.360;2022-12-07T16:35:51;8.60;;;2.75;;
64986;SDS011;51532;52.108;9.360;2022-12-07T16:38:38;5.40;;;2.58;;
64986;SDS011;51532;52.108;9.360;2022-12-07T16:41:25;4.13;;;2.38;;
64986;SDS011;51532;52.108;9.360;2022-12-07T16:44:13;8.10;;;2.58;;
64986;SDS011;51532;52.108;9.360;2022-12-07T16:47:00;5.65;;;2.63;;
64986;SDS011;51532;52.108;9.360;2022-12-07T16:49:48;6.95;;;2.38;;
64986;SDS011;51532;52.108;9.360;2022-12-07T16:52:35;5.82;;;2.15;;
64986;SDS011;51532;52.108;9.360;2022-12-07T16:55:23;6.03;;;2.05;;
64986;SDS011;51532;52.108;9.360;2022-12-07T16:58:11;6.55;;;2.20;;
64986;SDS011;51532;52.108;9.360;2022-12-07T17:00:59;5.70;;;2.03;;
64986;SDS011;51532;52.108;9.360;2022-12-07T17:04:05;5.40;;;2.38;;
64986;SDS011;51532;52.108;9.360;2022-12-07T17:06:53;6.55;;;2.83;;
64986;SDS011;51532;52.108;9.360;2022-12-07T17:09:41;8.60;;;5.75;;
64986;SDS011;51532;52.108;9.360;2022-12-07T17:12:28;7.70;;;3.13;;
64986;SDS011;51532;52.108;9.360;2022-12-07T17:15:15;2.50;;;1.70;;
64986;SDS011;51532;52.108;9.360;2022-12-07T17:18:03;7.22;;;3.20;;
64986;SDS011;51532;52.108;9.360;2022-12-07T17:20:50;6.38;;;2.53;;
64986;SDS011;51532;52.108;9.360;2022-12-07T17:23:38;8.05;;;3.80;;
64986;SDS011;51532;52.108;9.360;2022-12-07T17:26:27;5.18;;;3.13;;
64986;SDS011;51532;52.108;9.360;2022-12-07T17:29:21;3.92;;;2.03;;
64986;SDS011;51532;52.108;9.360;2022-12-07T17:32:08;4.15;;;2.40;;
64986;SDS011;51532;52.108;9.360;2022-12-07T17:34:56;3.95;;;2.97;;
64986;SDS011;51532;52.108;9.360;2022-12-07T17:37:43;6.20;;;3.03;;
64986;SDS011;51532;52.108;9.360;2022-12-07T17:40:36;5.40;;;2.63;;
64986;SDS011;51532;52.108;9.360;2022-12-07T17:43:24;18.77;;;12.63;;
64986;SDS011;51532;52.108;9.360;2022-12-07T17:46:11;5.22;;;2.30;;
64986;SDS011;51532;52.108;9.360;2022-12-07T17:48:59;6.95;;;2.55;;
64986;SDS011;51532;52.108;9.360;2022-12-07T17:51:47;3.55;;;2.42;;
64986;SDS011;51532;52.108;9.360;2022-12-07T17:54:53;6.28;;;2.80;;
64986;SDS011;51532;52.108;9.360;2022-12-07T17:57:40;6.30;;;2.53;;
64986;SDS011;51532;52.108;9.360;2022-12-07T18:00:28;3.55;;;2.35;;
64986;SDS011;51532;52.108;9.360;2022-12-07T18:03:15;4.88;;;3.10;;
64986;SDS011;51532;52.108;9.360;2022-12-07T18:06:03;6.13;;;2.80;;
64986;SDS011;51532;52.108;9.360;2022-12-07T18:08:51;5.15;;;2.80;;
64986;SDS011;51532;52.108;9.360;2022-12-07T18:11:38;4.05;;;2.53;;
64986;SDS011;51532;52.108;9.360;2022-12-07T18:14:26;6.78;;;2.92;;
64986;SDS011;51532;52.108;9.360;2022-12-07T18:17:15;4.40;;;2.70;;
64986;SDS011;51532;52.108;9.360;2022-12-07T18:20:02;6.40;;;2.90;;
64986;SDS011;51532;52.108;9.360;2022-12-07T18:22:50;5.85;;;2.60;;
64986;SDS011;51532;52.108;9.360;2022-12-07T18:25:38;5.00;;;2.88;;
64986;SDS011;51532;52.108;9.360;2022-12-07T18:28:26;4.70;;;2.92;;
64986;SDS011;51532;52.108;9.360;2022-12-07T18:31:14;7.88;;;3.10;;